createdAt,value
2023-04-28T00:03:10.873Z,100236.47
2023-04-28T00:07:15.657Z,100240.25
2023-04-28T00:11:20.016Z,100236.69
2023-04-28T00:15:23.295Z,100242.34
2023-04-28T00:19:26.500Z,100236.47
2023-04-28T00:23:29.466Z,100229.31
2023-04-28T00:27:33.735Z,100219.25
2023-04-28T00:31:36.646Z,100220.72
2023-04-28T00:35:39.538Z,100213.59
2023-04-28T00:39:45.646Z,100218.00
2023-04-28T00:43:50.246Z,100217.16
2023-04-28T00:47:54.002Z,100218.00
2023-04-28T00:51:57.670Z,100212.97
2023-04-28T00:56:01.226Z,100202.03
2023-04-28T01:00:06.640Z,100197.41
2023-04-28T01:04:09.605Z,100198.72
2023-04-28T01:08:14.013Z,100204.16
2023-04-28T01:12:17.023Z,100218.03
2023-04-28T01:16:26.275Z,100216.53
2023-04-28T01:20:29.714Z,100220.94
2023-04-28T01:24:34.414Z,100227.44
2023-04-28T01:28:40.989Z,100236.06
2023-04-28T01:32:43.937Z,100226.19
2023-04-28T01:36:47.225Z,100231.88
2023-04-28T01:40:51.492Z,100229.34
2023-04-28T01:44:54.553Z,100210.88
2023-04-28T01:48:57.448Z,100199.31
2023-04-28T01:53:00.377Z,100220.94
2023-04-28T01:57:04.906Z,100210.25
2023-04-28T02:01:10.531Z,100201.66
2023-04-28T02:05:14.437Z,100223.06
2023-04-28T02:09:17.298Z,100216.75
2023-04-28T02:13:21.527Z,100212.16
2023-04-28T02:17:24.409Z,100209.81
2023-04-28T02:21:27.969Z,100212.34
2023-04-28T02:25:30.822Z,100215.88
2023-04-28T02:29:35.033Z,100209.59
2023-04-28T02:33:38.279Z,100209.19
2023-04-28T02:37:41.242Z,100212.34
2023-04-28T02:41:44.148Z,100208.34
2023-04-28T02:45:48.370Z,100217.38
2023-04-28T02:49:51.287Z,100221.78
2023-04-28T02:53:54.174Z,100216.94
2023-04-28T02:57:57.180Z,100197.22
2023-04-28T03:02:01.554Z,100182.31
2023-04-28T03:06:04.515Z,100173.88
2023-04-28T03:10:08.038Z,100162.53
2023-04-28T03:14:11.282Z,100142.78
2023-04-28T03:18:15.534Z,100141.25
2023-04-28T03:22:18.431Z,100138.28
2023-04-28T03:26:21.584Z,100121.28
2023-04-28T03:30:26.293Z,100127.13
2023-04-28T03:34:30.862Z,100117.88
2023-04-28T03:38:34.224Z,100095.56
2023-04-28T03:42:37.606Z,100068.19
2023-04-28T03:46:44.866Z,100084.59
2023-04-28T03:50:50.081Z,100077.81
2023-04-28T03:54:53.578Z,100080.69
2023-04-28T03:58:56.648Z,100080.66
2023-04-28T04:02:59.727Z,100094.47
2023-04-28T04:07:04.244Z,100098.25
2023-04-28T04:11:07.470Z,100098.25
2023-04-28T04:15:11.327Z,100097.63
2023-04-28T04:19:14.937Z,100102.22
2023-04-28T04:23:21.196Z,100105.38
2023-04-28T04:27:24.474Z,100102.84
2023-04-28T04:31:28.105Z,100100.75
2023-04-28T04:35:31.258Z,100102.22
2023-04-28T04:39:36.752Z,100100.31
2023-04-28T04:43:39.739Z,100110.41
2023-04-28T04:47:43.996Z,100110.84
2023-04-28T04:51:48.207Z,100112.75
2023-04-28T04:55:52.724Z,100112.34
2023-04-28T04:59:55.900Z,100111.75
2023-04-28T05:03:58.957Z,100114.47
2023-04-28T05:08:02.442Z,100103.81
2023-04-28T05:12:07.015Z,100112.34
2023-04-28T05:16:10.150Z,100114.25
2023-04-28T05:20:22.599Z,100114.03
2023-04-28T05:24:25.465Z,100121.97
2023-04-28T05:28:29.850Z,100133.06
2023-04-28T05:32:35.043Z,100120.84
2023-04-28T05:36:38.179Z,100103.59
2023-04-28T05:40:44.445Z,100114.25
2023-04-28T05:44:50.030Z,100111.69
2023-04-28T05:48:52.951Z,100103.66
2023-04-28T05:52:55.843Z,100107.63
2023-04-28T05:57:01.512Z,100102.56
2023-04-28T06:01:06.534Z,100117.84
2023-04-28T06:05:10.671Z,100113.28
2023-04-28T06:09:13.694Z,100115.13
2023-04-28T06:13:16.649Z,100115.47
2023-04-28T06:17:20.880Z,100114.13
2023-04-28T06:21:25.077Z,100098.47
2023-04-28T06:25:28.085Z,100076.88
2023-04-28T06:29:31.032Z,100065.03
2023-04-28T06:33:35.389Z,100047.66
2023-04-28T06:37:38.374Z,100058.31
2023-04-28T06:41:41.295Z,100057.41
2023-04-28T06:45:46.063Z,100081.44
2023-04-28T06:49:50.589Z,100060.47
2023-04-28T06:53:53.483Z,100052.16
2023-04-28T06:57:56.529Z,100066.22
2023-04-28T07:01:59.431Z,100050.53
2023-04-28T07:06:04.477Z,100047.94
2023-04-28T07:10:07.935Z,100042.59
2023-04-28T07:14:11.635Z,100027.25
2023-04-28T07:18:16.748Z,100038.22
2023-04-28T07:22:22.851Z,100046.66
2023-04-28T07:26:28.612Z,100043.84
2023-04-28T07:30:32.001Z,100039.56
2023-04-28T07:34:35.703Z,100053.28
2023-04-28T07:38:40.142Z,100046.59
2023-04-28T07:42:43.811Z,100054.94
2023-04-28T07:46:46.716Z,100054.03
2023-04-28T07:50:49.671Z,100056.97
2023-04-28T07:54:54.203Z,100063.72
2023-04-28T07:58:57.255Z,100059.56
2023-04-28T08:03:04.582Z,100046.00
2023-04-28T08:07:08.056Z,100036.91
2023-04-28T08:11:15.998Z,100036.28
2023-04-28T08:15:19.567Z,100022.88
2023-04-28T08:19:24.082Z,100014.91
2023-04-28T08:23:28.461Z,100008.53
2023-04-28T08:27:34.278Z,100021.69
2023-04-28T08:31:37.290Z,100026.63
2023-04-28T08:35:40.266Z,100060.44
2023-04-28T08:39:43.287Z,100083.81
2023-04-28T08:43:47.624Z,100098.63
2023-04-28T08:47:51.108Z,100112.63
2023-04-28T08:51:57.617Z,100117.50
2023-04-28T08:56:01.527Z,100120.13
2023-04-28T09:00:07.367Z,100128.28
2023-04-28T09:04:14.026Z,100124.34
2023-04-28T09:08:18.319Z,100139.28
2023-04-28T09:12:24.500Z,100143.22
2023-04-28T09:16:41.589Z,100138.78
2023-04-28T09:20:46.121Z,100135.22
2023-04-28T09:24:49.045Z,100137.09
2023-04-28T09:28:57.337Z,100143.34
2023-04-28T09:33:08.167Z,100142.38
2023-04-28T09:37:15.708Z,100143.06
2023-04-28T09:41:18.755Z,100146.13
2023-04-28T09:45:21.902Z,100139.81
2023-04-28T09:49:26.430Z,100150.41
2023-04-28T09:53:29.867Z,100153.41
2023-04-28T09:57:34.237Z,100135.00
2023-04-28T10:01:39.137Z,100141.81
2023-04-28T10:05:44.429Z,100137.72
2023-04-28T10:09:50.148Z,100134.44
2023-04-28T10:13:54.384Z,100131.94
2023-04-28T10:17:57.508Z,100123.75
2023-04-28T10:22:07.520Z,100101.56
2023-04-28T10:26:12.069Z,100079.50
2023-04-28T10:34:30.168Z,100036.50
2023-04-28T10:38:38.107Z,100025.25
2023-04-28T10:42:53.052Z,100021.13
2023-04-28T10:47:02.383Z,100026.06
2023-04-28T10:51:20.416Z,100019.00
2023-04-28T10:55:33.683Z,100010.16
2023-04-28T10:59:36.691Z,99993.63
2023-04-28T11:03:46.693Z,99989.06
2023-04-28T11:08:09.337Z,99970.53
2023-04-28T11:12:16.140Z,99963.97
2023-04-28T11:16:20.934Z,99963.91
2023-04-28T11:20:26.381Z,99962.66
2023-04-28T11:24:30.183Z,99952.97
2023-04-28T11:28:35.030Z,99954.56
2023-04-28T11:32:40.257Z,99953.94
2023-04-28T11:36:43.783Z,99953.03
2023-04-28T11:40:57.465Z,99967.75
2023-04-28T11:45:02.146Z,99952.03
2023-04-28T11:49:05.892Z,99956.91
2023-04-28T11:53:08.892Z,99950.91
2023-04-28T11:57:18.345Z,99945.94
2023-04-28T12:01:23.238Z,99969.59
2023-04-28T12:05:26.885Z,99947.63
2023-04-28T12:09:31.374Z,99943.50
2023-04-28T12:13:36.926Z,99951.63
2023-04-28T12:17:43.350Z,99953.38
2023-04-28T12:22:00.145Z,99951.50
2023-04-28T12:26:08.575Z,99945.56
2023-04-28T12:30:26.823Z,99942.28
2023-04-28T12:34:34.840Z,99933.41
2023-04-28T12:38:38.379Z,99928.47
2023-04-28T12:42:41.751Z,99924.63
2023-04-28T12:46:44.743Z,99920.28
2023-04-28T12:50:48.948Z,99926.63
2023-04-28T12:54:51.790Z,99915.13
2023-04-28T12:58:54.733Z,99914.31
2023-04-28T13:03:00.488Z,99920.44
2023-04-28T13:07:07.483Z,99931.44
2023-04-28T13:11:21.895Z,99915.94
2023-04-28T13:15:25.432Z,99920.56
2023-04-28T13:19:31.737Z,99925.13
2023-04-28T13:23:36.003Z,99942.84
2023-04-28T13:27:40.097Z,99920.69
2023-04-28T13:31:44.874Z,99913.38
2023-04-28T13:35:47.848Z,99905.41
2023-04-28T13:39:52.261Z,99900.75
2023-04-28T13:43:55.769Z,99904.13
2023-04-28T13:47:58.829Z,99918.63
2023-04-28T13:52:03.639Z,99913.56
2023-04-28T13:56:08.591Z,99917.00
2023-04-28T14:00:12.595Z,99937.09
2023-04-28T14:04:15.692Z,99902.44
2023-04-28T14:08:20.643Z,99920.66
2023-04-28T14:12:25.411Z,99918.41
2023-04-28T14:16:29.074Z,99918.72
2023-04-28T14:20:32.114Z,99923.00
2023-04-28T14:24:34.999Z,99937.75
2023-04-28T14:28:39.228Z,99918.94
2023-04-28T14:32:42.429Z,99943.59
2023-04-28T14:36:45.339Z,99952.38
2023-04-28T14:40:48.232Z,99962.19
2023-04-28T14:44:54.453Z,99961.94
2023-04-28T14:48:58.412Z,99959.50
2023-04-28T14:53:05.707Z,99977.78
2023-04-28T14:57:08.600Z,99956.16
2023-04-28T15:01:13.314Z,99967.25
2023-04-28T15:05:16.211Z,99993.00
2023-04-28T15:09:19.044Z,100017.88
2023-04-28T15:13:22.213Z,99996.94
2023-04-28T15:17:26.544Z,100011.31
2023-04-28T15:21:29.909Z,100003.09
2023-04-28T15:25:33.293Z,100008.63
2023-04-28T15:29:36.189Z,100012.72
2023-04-28T15:33:40.763Z,100017.09
2023-04-28T15:37:44.809Z,100027.88
2023-04-28T15:41:47.808Z,100035.78
2023-04-28T15:45:50.796Z,100047.97
2023-04-28T15:49:55.110Z,100036.19
2023-04-28T15:53:58.365Z,100035.31
2023-04-28T15:58:02.049Z,100039.75
2023-04-28T16:02:05.021Z,100047.03
2023-04-28T16:06:09.316Z,100038.53
2023-04-28T16:10:12.968Z,100025.78
2023-04-28T16:14:16.079Z,100045.84
2023-04-28T16:18:18.957Z,100069.28
2023-04-28T16:22:23.804Z,100067.38
2023-04-28T16:26:26.832Z,100082.50
2023-04-28T16:30:30.147Z,100088.50
2023-04-28T16:34:33.192Z,100089.63
2023-04-28T16:38:37.652Z,100085.44
2023-04-28T16:42:40.678Z,100078.84
2023-04-28T16:46:43.926Z,100079.34
2023-04-28T16:50:46.803Z,100073.31
2023-04-28T16:54:51.237Z,100070.56
2023-04-28T16:58:54.218Z,100079.44
2023-04-28T17:02:57.245Z,100078.09
2023-04-28T17:07:03.745Z,100083.28
2023-04-28T17:11:08.128Z,100090.81
2023-04-28T17:15:14.728Z,100097.44
2023-04-28T17:19:17.768Z,100105.03
2023-04-28T17:23:20.650Z,100091.09
2023-04-28T17:27:25.220Z,100106.06
2023-04-28T17:31:28.717Z,100113.09
2023-04-28T17:35:31.630Z,100119.19
2023-04-28T17:39:34.499Z,100119.41
2023-04-28T17:43:39.487Z,100130.63
2023-04-28T17:47:42.356Z,100136.13
2023-04-28T17:51:45.249Z,100139.97
2023-04-28T17:55:48.111Z,100127.72
2023-04-28T17:59:52.380Z,100139.31
2023-04-28T18:03:55.837Z,100134.88
2023-04-28T18:08:02.053Z,100134.81
2023-04-28T18:12:05.399Z,100146.31
2023-04-28T18:16:14.070Z,100145.81
2023-04-28T18:20:17.186Z,100141.41
2023-04-28T18:24:20.079Z,100157.03
2023-04-28T18:28:23.337Z,100149.59
2023-04-28T18:32:29.204Z,100160.50
2023-04-28T18:36:33.128Z,100167.69
2023-04-28T18:40:37.825Z,100157.53
2023-04-28T18:44:41.386Z,100164.63
2023-04-28T18:48:45.894Z,100168.47
2023-04-28T18:52:50.347Z,100166.19
2023-04-28T18:56:53.863Z,100165.34
2023-04-28T19:00:56.794Z,100157.09
2023-04-28T19:05:02.710Z,100168.00
2023-04-28T19:09:08.333Z,100176.44
2023-04-28T19:13:11.428Z,100185.03
2023-04-28T19:17:15.133Z,100181.19
2023-04-28T19:21:20.131Z,100197.03
2023-04-28T19:25:24.084Z,100206.38
2023-04-28T19:29:29.073Z,100209.53
2023-04-28T19:33:32.859Z,100229.13
2023-04-28T19:37:41.978Z,100236.97
2023-04-28T19:41:47.070Z,100256.09
2023-04-28T19:45:50.100Z,100252.25
2023-04-28T19:49:55.831Z,100257.75
2023-04-28T19:54:01.735Z,100261.09
2023-04-28T19:58:07.017Z,100262.56
2023-04-28T20:02:10.253Z,100257.75
2023-04-28T20:06:19.109Z,100259.31
2023-04-28T20:10:24.123Z,100264.34
2023-04-28T20:14:28.482Z,100273.19
2023-04-28T20:18:31.859Z,100281.75
2023-04-28T20:22:35.489Z,100292.50
2023-04-28T20:26:40.085Z,100302.56
2023-04-28T20:30:43.191Z,100308.13
2023-04-28T20:34:46.177Z,100328.91
2023-04-28T20:38:49.208Z,100334.59
2023-04-28T20:42:53.524Z,100342.31
2023-04-28T20:46:56.470Z,100348.69
2023-04-28T20:50:59.511Z,100358.94
2023-04-28T20:55:02.924Z,100367.41
2023-04-28T20:59:07.628Z,100380.31
2023-04-28T21:03:15.859Z,100370.38
2023-04-28T21:07:21.038Z,100375.06
2023-04-28T21:11:27.265Z,100378.16
2023-04-28T21:15:37.114Z,100379.22
2023-04-28T21:19:41.156Z,100382.69
2023-04-28T21:23:45.978Z,100391.16
2023-04-28T21:27:49.455Z,100397.34
2023-04-28T21:31:54.896Z,100393.63
2023-04-28T21:35:59.690Z,100394.69
2023-04-28T21:40:03.999Z,100393.84
2023-04-28T21:44:09.367Z,100396.81
2023-04-28T21:48:13.786Z,100398.97
2023-04-28T21:52:16.774Z,100398.97
2023-04-28T21:56:20.762Z,100392.88
2023-04-28T22:00:23.930Z,100395.81
2023-04-28T22:04:28.837Z,100382.19
2023-04-28T22:08:31.948Z,100390.88
2023-04-28T22:12:34.806Z,100392.84
2023-04-28T22:16:37.774Z,100393.28
2023-04-28T22:20:41.946Z,100400.13
2023-04-28T22:24:44.831Z,100391.22
2023-04-28T22:28:48.745Z,100386.72
2023-04-28T22:32:51.605Z,100384.25
2023-04-28T22:36:57.655Z,100384.13
2023-04-28T22:41:01.665Z,100375.72
2023-04-28T22:45:10.960Z,100377.00
2023-04-28T22:49:14.060Z,100377.25
2023-04-28T22:53:19.635Z,100371.59
2023-04-28T22:57:22.526Z,100373.72
2023-04-28T23:01:28.222Z,100379.69
2023-04-28T23:05:31.398Z,100368.53
2023-04-28T23:09:37.293Z,100369.41
2023-04-28T23:13:40.649Z,100365.00
2023-04-28T23:17:44.487Z,100376.34
2023-04-28T23:21:47.379Z,100370.03
2023-04-28T23:25:52.153Z,100365.00
2023-04-28T23:29:55.097Z,100367.13
2023-04-28T23:33:59.626Z,100355.34
2023-04-28T23:38:02.530Z,100348.63
2023-04-28T23:42:07.466Z,100345.72
2023-04-28T23:46:10.406Z,100344.31
2023-04-28T23:50:13.492Z,100347.28
2023-04-28T23:54:17.204Z,100344.56
2023-04-28T23:58:21.408Z,100341.47
